Terminal Aerodrome Forecast
Issued by NWS

Home | Current Version | Previous Version | Text Only | Print | Product List | Glossary On
Versions: 1 2 3 4 5 6 7 8 9 10 11 12 13 14 15 16 17 18 19 20 21 22 23 24 25 26 27 28 29 30 31 32
000
FTUS41 KRNK 180526
TAFBCB
TAF
KBCB 180526Z 1806/1906 00000KT 4SM BR BKN040
      TEMPO 1806/1809 1SM BR SCT001
     FM180900 00000KT 1/2SM FG OVC001
     FM181400 00000KT P6SM SCT012 BKN030
     FM181800 10003KT P6SM BKN040
     FM190000 00000KT P6SM SCT080=

USA.gov is the U.S. government's official web portal to all federal, state and local government web resources and services.